Portada
METAR-TAF:

METAR-TAF

Aeroports :

Kununurra, Austràlia

latitud: 15-46S, longitud: 128-42E, altitud: 44 m

Observació

L'informe es va fer fa 29 minuts, a les 07:00 UTC
Vent 4 kt del Sud-Est, variant entre Est/Nord-Est i Sud
Temperatura 39°C
Humitat 26%
Pressió 1005 hPa
Visibilitat 10 km o més

METAR: YPKU 230700Z AUTO 13004KT 070V190 9999 // NCD 39/16 Q1005

Hora: 15:29 (07:29 UTC)

Pronòstic

L'informe es va fer fa 6 hores i 41 minuts, a les 00:48 UTC
Pronòstic vàlid del 23 a les 02 UTC al 23 a les 14 UTC
Vent 10 kt del Sud
Visibilitat 10 km o més
sense núvols per sota de 1500 mi sense presència de cumulonimbus.
A partir de les 23 a les 0500 UTC
Vent 8 kt del Sud-Est
Visibilitat 10 km o més
sense núvols per sota de 1500 mi sense presència de cumulonimbus.
A partir de les 23 a les 1100 UTC
Vent 6 kt del Nord/Nord-Est
Visibilitat 10 km o més
sense núvols per sota de 1500 mi sense presència de cumulonimbus.

TAF: YPKU 230048Z 2302/2314 18010KT CAVOK FM230500 13008KT CAVOK FM231100 02006KT CAVOK

Observacions i pronòstics meteorològics de més de 4000 aeroports (METAR i TAF).

Les estacions disponibles són els punts grocs i vermells al mapa.

Posi el ratolí al punt desitjat per veure el nom de l'estació.

Feu clic per veure les observacions i els pronòstics meteorològics.

Per canviar el mapa: feu clic els botons verds amb una creu de color negre per apropar; al botó verd amb un guió per allunyar la imatge; o en les fletxes verdes per a mapes adjacents.


METAR-TAF: